sensor_id;sensor_type;location;lat;lon;timestamp;pressure;altitude;pressure_sealevel;temperature;humidity
69751;BME280;57335;52.288;6.056;2023-01-28T00:01:14;103008.56;;;1.76;92.35
69751;BME280;57335;52.288;6.056;2023-01-28T00:03:41;102993.66;;;1.80;91.88
69751;BME280;57335;52.288;6.056;2023-01-28T00:06:11;102996.91;;;1.84;92.88
69751;BME280;57335;52.288;6.056;2023-01-28T00:08:38;102994.50;;;1.81;91.90
69751;BME280;57335;52.288;6.056;2023-01-28T00:11:06;102986.94;;;1.77;93.39
69751;BME280;57335;52.288;6.056;2023-01-28T00:13:33;102998.09;;;1.78;92.25
69751;BME280;57335;52.288;6.056;2023-01-28T00:16:04;102991.00;;;1.82;90.97
69751;BME280;57335;52.288;6.056;2023-01-28T00:18:31;102996.81;;;1.85;92.02
69751;BME280;57335;52.288;6.056;2023-01-28T00:21:05;102987.88;;;1.76;90.07
69751;BME280;57335;52.288;6.056;2023-01-28T00:23:34;103000.69;;;1.78;90.50
69751;BME280;57335;52.288;6.056;2023-01-28T00:26:03;103000.03;;;1.74;90.09
69751;BME280;57335;52.288;6.056;2023-01-28T00:28:30;103012.22;;;1.87;92.18
69751;BME280;57335;52.288;6.056;2023-01-28T00:30:56;103015.94;;;1.83;94.17
69751;BME280;57335;52.288;6.056;2023-01-28T00:33:23;103007.06;;;1.72;96.09
69751;BME280;57335;52.288;6.056;2023-01-28T00:35:59;103015.00;;;1.69;97.73
69751;BME280;57335;52.288;6.056;2023-01-28T00:38:27;103006.44;;;1.54;97.45
69751;BME280;57335;52.288;6.056;2023-01-28T00:40:53;103019.25;;;1.56;96.35
69751;BME280;57335;52.288;6.056;2023-01-28T00:43:20;103018.59;;;1.52;96.95
69751;BME280;57335;52.288;6.056;2023-01-28T00:45:47;103017.03;;;1.50;97.02
69751;BME280;57335;52.288;6.056;2023-01-28T00:48:15;103002.56;;;1.47;96.63
69751;BME280;57335;52.288;6.056;2023-01-28T00:50:41;103013.34;;;1.54;95.35
69751;BME280;57335;52.288;6.056;2023-01-28T00:53:09;103013.91;;;1.59;96.35
69751;BME280;57335;52.288;6.056;2023-01-28T00:55:35;103018.06;;;1.62;96.97
69751;BME280;57335;52.288;6.056;2023-01-28T00:58:01;103017.53;;;1.56;94.00
69751;BME280;57335;52.288;6.056;2023-01-28T01:00:28;103002.75;;;1.44;93.63
69751;BME280;57335;52.288;6.056;2023-01-28T01:02:54;103019.47;;;1.53;91.28
69751;BME280;57335;52.288;6.056;2023-01-28T01:05:20;103007.81;;;1.60;91.51
69751;BME280;57335;52.288;6.056;2023-01-28T01:07:47;102995.53;;;1.64;90.82
69751;BME280;57335;52.288;6.056;2023-01-28T01:10:14;103007.19;;;1.71;90.86
69751;BME280;57335;52.288;6.056;2023-01-28T01:12:41;102998.69;;;1.69;91.07
69751;BME280;57335;52.288;6.056;2023-01-28T01:15:08;103009.03;;;1.69;90.59
69751;BME280;57335;52.288;6.056;2023-01-28T01:17:40;103003.56;;;1.73;90.44
69751;BME280;57335;52.288;6.056;2023-01-28T01:20:13;103005.13;;;1.76;90.59
69751;BME280;57335;52.288;6.056;2023-01-28T01:22:39;103007.78;;;1.74;91.31
69751;BME280;57335;52.288;6.056;2023-01-28T01:25:06;103015.47;;;1.76;91.42
69751;BME280;57335;52.288;6.056;2023-01-28T01:27:32;103010.19;;;1.77;91.77
69751;BME280;57335;52.288;6.056;2023-01-28T01:29:59;103000.97;;;1.73;90.74
69751;BME280;57335;52.288;6.056;2023-01-28T01:32:30;103011.03;;;1.78;91.60
69751;BME280;57335;52.288;6.056;2023-01-28T01:34:57;103005.41;;;1.71;90.37
69751;BME280;57335;52.288;6.056;2023-01-28T01:37:23;103020.72;;;1.74;91.13
69751;BME280;57335;52.288;6.056;2023-01-28T01:39:49;103014.06;;;1.70;90.75
69751;BME280;57335;52.288;6.056;2023-01-28T01:42:16;103016.19;;;1.78;91.76
69751;BME280;57335;52.288;6.056;2023-01-28T01:47:21;103015.28;;;1.79;91.32
69751;BME280;57335;52.288;6.056;2023-01-28T01:49:49;103017.22;;;1.75;91.44
69751;BME280;57335;52.288;6.056;2023-01-28T01:52:18;103012.97;;;1.60;91.79
69751;BME280;57335;52.288;6.056;2023-01-28T01:54:50;103023.16;;;1.63;93.11
69751;BME280;57335;52.288;6.056;2023-01-28T01:57:23;103017.03;;;1.64;93.17
69751;BME280;57335;52.288;6.056;2023-01-28T01:59:51;103021.59;;;1.61;93.89
69751;BME280;57335;52.288;6.056;2023-01-28T02:02:17;103032.53;;;1.64;94.44
69751;BME280;57335;52.288;6.056;2023-01-28T02:04:44;103037.91;;;1.61;93.08
69751;BME280;57335;52.288;6.056;2023-01-28T02:07:11;103038.81;;;1.60;94.08
69751;BME280;57335;52.288;6.056;2023-01-28T02:09:39;103027.00;;;1.56;94.51
69751;BME280;57335;52.288;6.056;2023-01-28T02:12:10;103043.91;;;1.62;93.22
69751;BME280;57335;52.288;6.056;2023-01-28T02:14:41;103037.91;;;1.61;93.71
69751;BME280;57335;52.288;6.056;2023-01-28T02:17:09;103033.28;;;1.52;93.01
69751;BME280;57335;52.288;6.056;2023-01-28T02:19:43;103042.63;;;1.54;91.88
69751;BME280;57335;52.288;6.056;2023-01-28T02:22:26;103035.78;;;1.53;92.54
69751;BME280;57335;52.288;6.056;2023-01-28T02:30:57;103042.72;;;1.38;92.41
69751;BME280;57335;52.288;6.056;2023-01-28T02:33:31;103042.16;;;1.48;92.58
69751;BME280;57335;52.288;6.056;2023-01-28T02:36:14;103041.41;;;1.46;91.30
69751;BME280;57335;52.288;6.056;2023-01-28T02:38:46;103045.00;;;1.43;91.71
69751;BME280;57335;52.288;6.056;2023-01-28T02:41:36;103035.06;;;1.51;90.83
69751;BME280;57335;52.288;6.056;2023-01-28T02:44:04;103035.34;;;1.47;90.56
69751;BME280;57335;52.288;6.056;2023-01-28T02:48:57;103041.94;;;1.22;91.32
69751;BME280;57335;52.288;6.056;2023-01-28T02:51:39;103039.09;;;1.27;90.46
69751;BME280;57335;52.288;6.056;2023-01-28T02:54:30;103043.16;;;1.31;90.00
69751;BME280;57335;52.288;6.056;2023-01-28T02:57:16;103036.50;;;1.27;90.20
69751;BME280;57335;52.288;6.056;2023-01-28T02:59:53;103040.44;;;1.18;89.31
69751;BME280;57335;52.288;6.056;2023-01-28T03:02:31;103030.47;;;1.12;90.43
69751;BME280;57335;52.288;6.056;2023-01-28T03:07:46;103048.75;;;1.09;88.95
69751;BME280;57335;52.288;6.056;2023-01-28T03:10:17;103036.31;;;1.15;89.90
69751;BME280;57335;52.288;6.056;2023-01-28T03:12:48;103029.75;;;1.24;89.59
69751;BME280;57335;52.288;6.056;2023-01-28T03:15:20;103044.72;;;1.33;87.34
69751;BME280;57335;52.288;6.056;2023-01-28T03:17:52;103036.59;;;1.39;87.39
69751;BME280;57335;52.288;6.056;2023-01-28T03:20:21;103027.09;;;1.40;86.09
69751;BME280;57335;52.288;6.056;2023-01-28T03:22:52;103021.69;;;1.45;85.92
69751;BME280;57335;52.288;6.056;2023-01-28T03:25:21;103021.38;;;1.49;85.91
69751;BME280;57335;52.288;6.056;2023-01-28T03:27:55;103022.78;;;1.55;85.24
69751;BME280;57335;52.288;6.056;2023-01-28T03:30:27;103017.63;;;1.55;85.74
69751;BME280;57335;52.288;6.056;2023-01-28T03:32:55;103022.56;;;1.58;85.25
69751;BME280;57335;52.288;6.056;2023-01-28T03:35:23;103029.59;;;1.56;84.68
69751;BME280;57335;52.288;6.056;2023-01-28T03:37:53;103024.78;;;1.50;86.84
69751;BME280;57335;52.288;6.056;2023-01-28T03:40:20;103028.94;;;1.52;87.05
69751;BME280;57335;52.288;6.056;2023-01-28T03:42:46;103038.81;;;1.46;86.50
69751;BME280;57335;52.288;6.056;2023-01-28T03:45:13;103043.97;;;1.31;86.66
69751;BME280;57335;52.288;6.056;2023-01-28T03:47:40;103034.38;;;1.19;88.10
69751;BME280;57335;52.288;6.056;2023-01-28T03:50:06;103040.28;;;1.21;87.11
69751;BME280;57335;52.288;6.056;2023-01-28T03:52:32;103031.97;;;1.16;88.63
69751;BME280;57335;52.288;6.056;2023-01-28T03:54:59;103038.22;;;1.12;87.04
69751;BME280;57335;52.288;6.056;2023-01-28T03:57:26;103042.84;;;1.07;87.39
69751;BME280;57335;52.288;6.056;2023-01-28T03:59:53;103040.88;;;0.96;88.10
69751;BME280;57335;52.288;6.056;2023-01-28T04:02:21;103037.56;;;1.08;89.02
69751;BME280;57335;52.288;6.056;2023-01-28T04:04:48;103039.34;;;1.22;87.91
69751;BME280;57335;52.288;6.056;2023-01-28T04:07:14;103034.91;;;1.24;87.11
69751;BME280;57335;52.288;6.056;2023-01-28T04:09:41;103039.81;;;1.14;87.49
69751;BME280;57335;52.288;6.056;2023-01-28T04:12:08;103036.00;;;1.06;88.32
69751;BME280;57335;52.288;6.056;2023-01-28T04:14:35;103023.81;;;0.93;89.07
69751;BME280;57335;52.288;6.056;2023-01-28T04:17:01;103038.78;;;1.03;89.08
69751;BME280;57335;52.288;6.056;2023-01-28T04:19:28;103047.69;;;0.97;89.88
69751;BME280;57335;52.288;6.056;2023-01-28T04:21:54;103061.34;;;0.99;88.54
69751;BME280;57335;52.288;6.056;2023-01-28T04:24:21;103056.28;;;0.97;89.29
69751;BME280;57335;52.288;6.056;2023-01-28T04:26:48;103057.69;;;1.03;90.37
69751;BME280;57335;52.288;6.056;2023-01-28T04:29:14;103053.59;;;0.99;90.04
69751;BME280;57335;52.288;6.056;2023-01-28T04:31:40;103064.59;;;1.03;89.97
69751;BME280;57335;52.288;6.056;2023-01-28T04:34:07;103067.34;;;0.99;90.40
69751;BME280;57335;52.288;6.056;2023-01-28T04:36:33;103071.03;;;0.95;90.95
69751;BME280;57335;52.288;6.056;2023-01-28T04:38:59;103076.94;;;0.97;90.36
69751;BME280;57335;52.288;6.056;2023-01-28T04:41:26;103079.00;;;1.07;88.59
69751;BME280;57335;52.288;6.056;2023-01-28T04:43:52;103072.44;;;1.01;87.13
69751;BME280;57335;52.288;6.056;2023-01-28T04:46:20;103087.28;;;1.12;87.96
69751;BME280;57335;52.288;6.056;2023-01-28T04:48:46;103091.28;;;1.17;88.88
69751;BME280;57335;52.288;6.056;2023-01-28T04:51:12;103062.75;;;1.05;90.66
69751;BME280;57335;52.288;6.056;2023-01-28T04:53:39;103058.50;;;1.04;88.63
69751;BME280;57335;52.288;6.056;2023-01-28T04:56:05;103074.97;;;1.17;90.17
69751;BME280;57335;52.288;6.056;2023-01-28T04:58:31;103072.19;;;1.20;90.30
69751;BME280;57335;52.288;6.056;2023-01-28T05:00:58;103072.94;;;1.22;89.67
69751;BME280;57335;52.288;6.056;2023-01-28T05:03:24;103065.09;;;1.24;89.89
69751;BME280;57335;52.288;6.056;2023-01-28T05:05:52;103047.94;;;1.23;89.55
69751;BME280;57335;52.288;6.056;2023-01-28T05:08:18;103046.84;;;1.27;89.67
69751;BME280;57335;52.288;6.056;2023-01-28T05:10:44;103042.50;;;1.27;89.27
69751;BME280;57335;52.288;6.056;2023-01-28T05:13:11;103051.56;;;1.34;89.50
69751;BME280;57335;52.288;6.056;2023-01-28T05:15:37;103048.88;;;1.36;89.40
69751;BME280;57335;52.288;6.056;2023-01-28T05:18:03;103037.72;;;1.35;90.87
69751;BME280;57335;52.288;6.056;2023-01-28T05:20:30;103033.66;;;1.31;91.31
69751;BME280;57335;52.288;6.056;2023-01-28T05:22:56;103043.06;;;1.32;91.70
69751;BME280;57335;52.288;6.056;2023-01-28T05:25:22;103048.88;;;1.36;91.51
69751;BME280;57335;52.288;6.056;2023-01-28T05:27:52;103039.72;;;1.30;91.47
69751;BME280;57335;52.288;6.056;2023-01-28T05:30:19;103043.25;;;1.29;92.12
69751;BME280;57335;52.288;6.056;2023-01-28T05:32:46;103033.94;;;1.27;92.30
69751;BME280;57335;52.288;6.056;2023-01-28T05:35:13;103038.06;;;1.29;91.92
69751;BME280;57335;52.288;6.056;2023-01-28T05:37:40;103031.50;;;1.24;91.58
69751;BME280;57335;52.288;6.056;2023-01-28T05:40:07;103048.50;;;1.28;93.48
69751;BME280;57335;52.288;6.056;2023-01-28T05:42:33;103048.94;;;1.20;92.38
69751;BME280;57335;52.288;6.056;2023-01-28T05:45:00;103062.88;;;1.17;91.10
69751;BME280;57335;52.288;6.056;2023-01-28T05:47:26;103059.63;;;1.14;92.19
69751;BME280;57335;52.288;6.056;2023-01-28T05:49:52;103050.91;;;1.16;90.95
69751;BME280;57335;52.288;6.056;2023-01-28T05:52:19;103058.16;;;1.10;90.28
69751;BME280;57335;52.288;6.056;2023-01-28T05:54:45;103063.13;;;0.98;91.04
69751;BME280;57335;52.288;6.056;2023-01-28T05:57:11;103053.53;;;1.01;90.79
69751;BME280;57335;52.288;6.056;2023-01-28T05:59:38;103043.38;;;0.97;88.25
69751;BME280;57335;52.288;6.056;2023-01-28T06:02:04;103042.47;;;0.98;88.95
69751;BME280;57335;52.288;6.056;2023-01-28T06:04:30;103041.06;;;0.93;88.86
69751;BME280;57335;52.288;6.056;2023-01-28T06:06:57;103051.69;;;1.03;88.10
69751;BME280;57335;52.288;6.056;2023-01-28T06:09:23;103041.44;;;1.01;89.79
69751;BME280;57335;52.288;6.056;2023-01-28T06:11:49;103046.16;;;1.09;89.54
69751;BME280;57335;52.288;6.056;2023-01-28T06:14:16;103043.00;;;1.04;90.94
69751;BME280;57335;52.288;6.056;2023-01-28T06:16:42;103051.41;;;1.07;90.63
69751;BME280;57335;52.288;6.056;2023-01-28T06:19:08;103047.69;;;0.97;91.16
69751;BME280;57335;52.288;6.056;2023-01-28T06:21:35;103038.09;;;0.85;91.90
69751;BME280;57335;52.288;6.056;2023-01-28T06:24:01;103060.97;;;0.91;92.34
69751;BME280;57335;52.288;6.056;2023-01-28T06:26:28;103048.41;;;0.85;92.55
69751;BME280;57335;52.288;6.056;2023-01-28T06:28:54;103050.44;;;0.94;92.50
69751;BME280;57335;52.288;6.056;2023-01-28T06:31:20;103046.88;;;0.96;92.47
69751;BME280;57335;52.288;6.056;2023-01-28T06:33:47;103052.69;;;1.00;92.20
69751;BME280;57335;52.288;6.056;2023-01-28T06:36:13;103051.31;;;0.94;92.05
69751;BME280;57335;52.288;6.056;2023-01-28T06:38:39;103047.97;;;0.92;93.07
69751;BME280;57335;52.288;6.056;2023-01-28T06:41:06;103049.31;;;0.84;94.06
69751;BME280;57335;52.288;6.056;2023-01-28T06:43:32;103058.81;;;0.83;91.72
69751;BME280;57335;52.288;6.056;2023-01-28T06:45:59;103056.03;;;0.86;90.49
69751;BME280;57335;52.288;6.056;2023-01-28T06:48:26;103069.44;;;0.93;90.80
69751;BME280;57335;52.288;6.056;2023-01-28T06:50:53;103070.13;;;0.96;89.92
69751;BME280;57335;52.288;6.056;2023-01-28T06:53:19;103074.34;;;0.97;89.89
69751;BME280;57335;52.288;6.056;2023-01-28T06:55:46;103069.38;;;0.94;90.15
69751;BME280;57335;52.288;6.056;2023-01-28T06:58:13;103080.91;;;1.03;88.60
69751;BME280;57335;52.288;6.056;2023-01-28T07:00:39;103090.03;;;0.94;89.85
69751;BME280;57335;52.288;6.056;2023-01-28T07:03:05;103099.69;;;0.91;91.51
69751;BME280;57335;52.288;6.056;2023-01-28T07:05:32;103076.75;;;0.70;90.96
69751;BME280;57335;52.288;6.056;2023-01-28T07:07:58;103091.91;;;0.76;90.30
69751;BME280;57335;52.288;6.056;2023-01-28T07:10:25;103093.72;;;0.74;89.83
69751;BME280;57335;52.288;6.056;2023-01-28T07:12:51;103089.47;;;0.73;90.30
69751;BME280;57335;52.288;6.056;2023-01-28T07:15:17;103084.72;;;0.66;90.84
69751;BME280;57335;52.288;6.056;2023-01-28T07:17:44;103090.41;;;0.72;91.51
69751;BME280;57335;52.288;6.056;2023-01-28T07:20:13;103084.03;;;0.78;93.11
69751;BME280;57335;52.288;6.056;2023-01-28T07:22:43;103079.22;;;0.72;92.87
69751;BME280;57335;52.288;6.056;2023-01-28T07:25:11;103082.56;;;0.74;93.20
69751;BME280;57335;52.288;6.056;2023-01-28T07:27:38;103079.22;;;0.72;93.06
69751;BME280;57335;52.288;6.056;2023-01-28T07:30:05;103086.00;;;0.74;93.78
69751;BME280;57335;52.288;6.056;2023-01-28T07:32:31;103084.50;;;0.70;92.85
69751;BME280;57335;52.288;6.056;2023-01-28T07:34:57;103097.06;;;0.76;93.05
69751;BME280;57335;52.288;6.056;2023-01-28T07:37:24;103098.03;;;0.74;92.93
69751;BME280;57335;52.288;6.056;2023-01-28T07:39:50;103108.34;;;0.74;94.45
69751;BME280;57335;52.288;6.056;2023-01-28T07:42:16;103118.69;;;0.74;94.64
69751;BME280;57335;52.288;6.056;2023-01-28T07:44:43;103106.88;;;0.70;94.03
69751;BME280;57335;52.288;6.056;2023-01-28T07:47:09;103119.44;;;0.76;94.37
69751;BME280;57335;52.288;6.056;2023-01-28T07:49:35;103115.53;;;0.69;96.31
69751;BME280;57335;52.288;6.056;2023-01-28T07:52:02;103120.19;;;0.62;95.10
69751;BME280;57335;52.288;6.056;2023-01-28T07:54:28;103128.53;;;0.67;94.61
69751;BME280;57335;52.288;6.056;2023-01-28T07:56:55;103124.84;;;0.71;95.03
69751;BME280;57335;52.288;6.056;2023-01-28T07:59:21;103135.78;;;0.76;96.01
69751;BME280;57335;52.288;6.056;2023-01-28T08:01:47;103132.59;;;0.71;94.97
69751;BME280;57335;52.288;6.056;2023-01-28T08:04:14;103135.25;;;0.70;94.50
69751;BME280;57335;52.288;6.056;2023-01-28T08:06:40;103125.44;;;0.61;94.54
69751;BME280;57335;52.288;6.056;2023-01-28T08:09:07;103136.34;;;0.66;92.81
69751;BME280;57335;52.288;6.056;2023-01-28T08:11:36;103141.50;;;0.66;94.32
69751;BME280;57335;52.288;6.056;2023-01-28T08:14:03;103131.53;;;0.59;93.26
69751;BME280;57335;52.288;6.056;2023-01-28T08:16:29;103144.69;;;0.71;93.84
69751;BME280;57335;52.288;6.056;2023-01-28T08:18:56;103150.59;;;0.73;93.28
69751;BME280;57335;52.288;6.056;2023-01-28T08:21:22;103141.09;;;0.73;93.64
69751;BME280;57335;52.288;6.056;2023-01-28T08:23:49;103130.75;;;0.73;92.47
69751;BME280;57335;52.288;6.056;2023-01-28T08:26:15;103146.91;;;0.77;93.13
69751;BME280;57335;52.288;6.056;2023-01-28T08:28:41;103145.09;;;0.79;93.49
69751;BME280;57335;52.288;6.056;2023-01-28T08:31:08;103149.16;;;0.83;94.61
69751;BME280;57335;52.288;6.056;2023-01-28T08:33:34;103146.09;;;0.76;94.07
69751;BME280;57335;52.288;6.056;2023-01-28T08:36:01;103160.56;;;0.79;92.82
69751;BME280;57335;52.288;6.056;2023-01-28T08:38:28;103154.81;;;0.74;94.46
69751;BME280;57335;52.288;6.056;2023-01-28T08:40:55;103145.75;;;0.83;93.32
69751;BME280;57335;52.288;6.056;2023-01-28T08:43:21;103150.06;;;0.82;93.74
69751;BME280;57335;52.288;6.056;2023-01-28T08:45:47;103151.91;;;0.80;92.85
69751;BME280;57335;52.288;6.056;2023-01-28T08:48:15;103159.88;;;0.91;94.35
69751;BME280;57335;52.288;6.056;2023-01-28T08:50:42;103147.56;;;0.96;94.27
69751;BME280;57335;52.288;6.056;2023-01-28T08:53:17;103156.63;;;0.88;90.61
69751;BME280;57335;52.288;6.056;2023-01-28T08:55:45;103160.56;;;0.95;89.92
69751;BME280;57335;52.288;6.056;2023-01-28T08:58:14;103171.38;;;1.02;92.22
69751;BME280;57335;52.288;6.056;2023-01-28T09:00:41;103166.78;;;1.07;92.77
69751;BME280;57335;52.288;6.056;2023-01-28T09:03:08;103156.63;;;1.04;92.62
69751;BME280;57335;52.288;6.056;2023-01-28T09:05:35;103181.41;;;1.22;91.14
69751;BME280;57335;52.288;6.056;2023-01-28T09:08:04;103171.66;;;1.27;89.84
69751;BME280;57335;52.288;6.056;2023-01-28T09:10:31;103168.38;;;1.39;91.54
69751;BME280;57335;52.288;6.056;2023-01-28T09:12:57;103174.50;;;1.53;90.78
69751;BME280;57335;52.288;6.056;2023-01-28T09:15:24;103166.03;;;1.65;89.52
69751;BME280;57335;52.288;6.056;2023-01-28T09:17:55;103168.56;;;1.81;90.19
69751;BME280;57335;52.288;6.056;2023-01-28T09:20:22;103163.69;;;1.91;88.43
69751;BME280;57335;52.288;6.056;2023-01-28T09:22:49;103161.25;;;2.02;87.87
69751;BME280;57335;52.288;6.056;2023-01-28T09:25:15;103179.00;;;2.23;86.38
69751;BME280;57335;52.288;6.056;2023-01-28T09:27:41;103178.25;;;2.35;86.03
69751;BME280;57335;52.288;6.056;2023-01-28T09:30:08;103177.41;;;2.49;86.28
69751;BME280;57335;52.288;6.056;2023-01-28T09:32:35;103188.66;;;2.62;86.19
69751;BME280;57335;52.288;6.056;2023-01-28T09:35:01;103197.34;;;2.75;85.15
69751;BME280;57335;52.288;6.056;2023-01-28T09:37:28;103200.63;;;2.92;84.11
69751;BME280;57335;52.288;6.056;2023-01-28T09:39:54;103201.66;;;2.89;80.92
69751;BME280;57335;52.288;6.056;2023-01-28T09:45:23;103203.13;;;2.93;81.36
69751;BME280;57335;52.288;6.056;2023-01-28T09:47:52;103207.84;;;2.87;81.52
69751;BME280;57335;52.288;6.056;2023-01-28T09:50:27;103214.38;;;2.92;82.10
69751;BME280;57335;52.288;6.056;2023-01-28T09:53:04;103223.09;;;2.91;80.36
69751;BME280;57335;52.288;6.056;2023-01-28T09:55:36;103209.84;;;2.96;81.75
69751;BME280;57335;52.288;6.056;2023-01-28T09:58:09;103209.94;;;2.94;80.68
69751;BME280;57335;52.288;6.056;2023-01-28T10:00:39;103207.16;;;2.97;79.72
69751;BME280;57335;52.288;6.056;2023-01-28T10:14:27;103215.69;;;2.99;79.46
69751;BME280;57335;52.288;6.056;2023-01-28T10:17:16;103209.41;;;3.16;79.81
69751;BME280;57335;52.288;6.056;2023-01-28T10:19:55;103210.19;;;3.31;81.35
69751;BME280;57335;52.288;6.056;2023-01-28T10:22:33;103209.28;;;3.45;80.36
69751;BME280;57335;52.288;6.056;2023-01-28T10:25:04;103222.28;;;3.71;79.53
69751;BME280;57335;52.288;6.056;2023-01-28T10:27:34;103217.13;;;3.84;78.59
69751;BME280;57335;52.288;6.056;2023-01-28T10:30:21;103208.09;;;3.76;76.70
69751;BME280;57335;52.288;6.056;2023-01-28T10:35:40;103202.38;;;3.71;76.63
69751;BME280;57335;52.288;6.056;2023-01-28T10:38:11;103181.19;;;3.65;76.86
69751;BME280;57335;52.288;6.056;2023-01-28T10:40:40;103187.56;;;3.73;77.90
69751;BME280;57335;52.288;6.056;2023-01-28T10:43:07;103179.03;;;3.84;78.06
69751;BME280;57335;52.288;6.056;2023-01-28T10:45:37;103178.22;;;3.84;78.42
69751;BME280;57335;52.288;6.056;2023-01-28T10:50:56;103166.09;;;3.97;76.98
69751;BME280;57335;52.288;6.056;2023-01-28T10:53:35;103178.50;;;4.17;81.82
69751;BME280;57335;52.288;6.056;2023-01-28T10:56:05;103167.91;;;4.33;77.79
69751;BME280;57335;52.288;6.056;2023-01-28T10:58:36;103183.81;;;4.53;76.20
69751;BME280;57335;52.288;6.056;2023-01-28T11:01:12;103179.50;;;4.53;72.21
69751;BME280;57335;52.288;6.056;2023-01-28T11:03:39;103159.69;;;4.39;74.50
69751;BME280;57335;52.288;6.056;2023-01-28T11:06:24;103144.19;;;4.38;77.17
69751;BME280;57335;52.288;6.056;2023-01-28T11:08:51;103126.94;;;4.37;76.34
69751;BME280;57335;52.288;6.056;2023-01-28T11:11:25;103113.72;;;4.53;75.57
69751;BME280;57335;52.288;6.056;2023-01-28T11:13:53;103100.28;;;4.59;74.39
69751;BME280;57335;52.288;6.056;2023-01-28T11:16:20;103105.28;;;4.62;75.52
69751;BME280;57335;52.288;6.056;2023-01-28T11:18:51;103102.75;;;4.73;78.56
69751;BME280;57335;52.288;6.056;2023-01-28T11:21:23;103099.13;;;4.87;75.73
69751;BME280;57335;52.288;6.056;2023-01-28T11:23:57;103093.25;;;4.96;73.76
69751;BME280;57335;52.288;6.056;2023-01-28T11:26:30;103071.06;;;5.04;74.53
69751;BME280;57335;52.288;6.056;2023-01-28T11:28:57;103080.06;;;5.11;73.31
69751;BME280;57335;52.288;6.056;2023-01-28T11:31:25;103095.44;;;5.14;71.34
69751;BME280;57335;52.288;6.056;2023-01-28T11:33:59;103082.34;;;5.15;72.77
69751;BME280;57335;52.288;6.056;2023-01-28T11:36:31;103080.81;;;5.24;72.95
69751;BME280;57335;52.288;6.056;2023-01-28T11:39:01;103067.59;;;5.27;75.00
69751;BME280;57335;52.288;6.056;2023-01-28T11:41:35;103067.94;;;5.34;70.63
69751;BME280;57335;52.288;6.056;2023-01-28T11:44:22;103065.81;;;5.50;74.77
69751;BME280;57335;52.288;6.056;2023-01-28T12:00:51;103077.66;;;5.66;70.53
69751;BME280;57335;52.288;6.056;2023-01-28T12:03:36;103071.41;;;5.68;70.99
69751;BME280;57335;52.288;6.056;2023-01-28T12:08:54;103091.84;;;5.84;68.53
69751;BME280;57335;52.288;6.056;2023-01-28T12:11:37;103086.28;;;5.89;70.75
69751;BME280;57335;52.288;6.056;2023-01-28T12:14:36;103089.72;;;6.01;70.19
69751;BME280;57335;52.288;6.056;2023-01-28T12:31:08;103092.81;;;6.06;70.72
69751;BME280;57335;52.288;6.056;2023-01-28T12:39:54;103086.31;;;6.00;67.41
69751;BME280;57335;52.288;6.056;2023-01-28T12:45:00;103082.97;;;5.87;69.02
69751;BME280;57335;52.288;6.056;2023-01-28T12:47:35;103080.72;;;5.82;70.58
69751;BME280;57335;52.288;6.056;2023-01-28T12:50:14;103077.78;;;5.75;70.41
69751;BME280;57335;52.288;6.056;2023-01-28T12:52:49;103072.56;;;5.64;67.95
69751;BME280;57335;52.288;6.056;2023-01-28T12:55:39;103067.84;;;5.58;67.84
69751;BME280;57335;52.288;6.056;2023-01-28T12:58:12;103054.72;;;5.48;68.80
69751;BME280;57335;52.288;6.056;2023-01-28T13:00:45;103046.56;;;5.42;68.22
69751;BME280;57335;52.288;6.056;2023-01-28T13:03:33;103033.19;;;5.24;67.51
69751;BME280;57335;52.288;6.056;2023-01-28T13:06:05;103027.59;;;5.17;67.37
69751;BME280;57335;52.288;6.056;2023-01-28T13:08:33;103017.19;;;4.94;69.20
69751;BME280;57335;52.288;6.056;2023-01-28T13:11:01;103010.81;;;4.87;70.26
69751;BME280;57335;52.288;6.056;2023-01-28T13:13:37;103005.00;;;4.84;70.72
69751;BME280;57335;52.288;6.056;2023-01-28T13:16:07;103006.03;;;4.81;71.66
69751;BME280;57335;52.288;6.056;2023-01-28T13:26:56;102992.31;;;4.68;72.27
69751;BME280;57335;52.288;6.056;2023-01-28T13:31:50;102996.28;;;4.49;72.93
69751;BME280;57335;52.288;6.056;2023-01-28T13:34:40;102991.97;;;4.37;72.55
69751;BME280;57335;52.288;6.056;2023-01-28T13:37:23;103004.53;;;4.43;73.81
69751;BME280;57335;52.288;6.056;2023-01-28T13:42:32;103006.09;;;4.33;73.94
69751;BME280;57335;52.288;6.056;2023-01-28T13:47:46;103024.44;;;4.43;72.81
69751;BME280;57335;52.288;6.056;2023-01-28T13:50:18;103021.69;;;4.33;73.24
69751;BME280;57335;52.288;6.056;2023-01-28T13:53:02;103017.66;;;4.29;73.27
69751;BME280;57335;52.288;6.056;2023-01-28T13:55:34;103016.94;;;4.27;74.78
69751;BME280;57335;52.288;6.056;2023-01-28T13:58:56;103021.41;;;4.25;75.20
69751;BME280;57335;52.288;6.056;2023-01-28T14:01:31;102995.91;;;4.18;76.40
69751;BME280;57335;52.288;6.056;2023-01-28T14:18:40;103027.31;;;4.27;74.61
69751;BME280;57335;52.288;6.056;2023-01-28T14:20:40;103042.88;;;4.27;74.02
69751;BME280;57335;52.288;6.056;2023-01-28T14:23:17;103034.28;;;4.26;75.61
69751;BME280;57335;52.288;6.056;2023-01-28T14:28:46;103007.50;;;4.26;75.41
69751;BME280;57335;52.288;6.056;2023-01-28T14:31:23;103006.25;;;4.31;74.65
69751;BME280;57335;52.288;6.056;2023-01-28T14:33:52;103001.75;;;4.33;76.55
69751;BME280;57335;52.288;6.056;2023-01-28T14:36:19;103002.78;;;4.31;76.08
69751;BME280;57335;52.288;6.056;2023-01-28T14:38:46;103005.72;;;4.26;74.87
69751;BME280;57335;52.288;6.056;2023-01-28T14:41:22;103016.50;;;4.33;75.54
69751;BME280;57335;52.288;6.056;2023-01-28T14:43:52;103015.06;;;4.29;76.01
69751;BME280;57335;52.288;6.056;2023-01-28T14:49:23;103027.47;;;4.36;76.88
69751;BME280;57335;52.288;6.056;2023-01-28T14:55:44;103011.75;;;4.27;76.74
69751;BME280;57335;52.288;6.056;2023-01-28T14:57:47;103016.44;;;4.22;76.69
69751;BME280;57335;52.288;6.056;2023-01-28T15:00:26;103036.06;;;4.26;76.36
69751;BME280;57335;52.288;6.056;2023-01-28T15:02:52;103036.88;;;4.26;78.19
69751;BME280;57335;52.288;6.056;2023-01-28T15:05:22;103041.44;;;4.23;76.70